createdAt,value
2022-10-14T00:02:17.358Z,28.70
2022-10-14T00:05:04.279Z,24.00
2022-10-14T00:07:51.412Z,28.50
2022-10-14T00:10:39.953Z,27.20
2022-10-14T00:13:26.799Z,24.70
2022-10-14T00:16:22.637Z,30.70
2022-10-14T00:19:10.673Z,27.10
2022-10-14T00:21:57.191Z,26.30
2022-10-14T00:24:44.029Z,28.80
2022-10-14T00:27:30.969Z,31.00
2022-10-14T00:30:22.008Z,23.60
2022-10-14T00:33:08.963Z,26.30
2022-10-14T00:36:01.043Z,25.20
2022-10-14T00:38:54.650Z,23.00
2022-10-14T00:41:43.411Z,28.60
2022-10-14T00:44:30.039Z,23.70
2022-10-14T00:47:17.770Z,33.90
2022-10-14T00:50:05.307Z,33.30
2022-10-14T00:52:53.193Z,21.70
2022-10-14T00:55:42.861Z,26.20
2022-10-14T00:58:31.040Z,30.30
2022-10-14T01:02:26.534Z,39.50
2022-10-14T01:05:16.244Z,30.50
2022-10-14T01:08:26.765Z,30.60
2022-10-14T01:11:36.016Z,29.60
2022-10-14T01:14:46.105Z,30.10
2022-10-14T01:18:02.008Z,24.70
2022-10-14T01:21:17.429Z,26.10
2022-10-14T01:24:36.403Z,23.40
2022-10-14T01:27:41.813Z,32.00
2022-10-14T01:30:37.549Z,30.40
2022-10-14T01:33:28.383Z,20.60
2022-10-14T01:36:30.603Z,23.70
2022-10-14T01:39:23.227Z,24.80
2022-10-14T01:42:24.421Z,20.90
2022-10-14T01:45:20.293Z,27.50
2022-10-14T01:48:08.197Z,27.00
2022-10-14T01:50:58.546Z,20.60
2022-10-14T01:53:54.370Z,21.20
2022-10-14T01:56:45.286Z,20.90
2022-10-14T01:59:35.843Z,21.30
2022-10-14T02:02:24.628Z,21.00
2022-10-14T02:05:21.398Z,23.80
2022-10-14T02:08:32.455Z,23.30
2022-10-14T02:11:22.127Z,22.10
2022-10-14T02:14:28.280Z,20.10
2022-10-14T02:17:26.737Z,24.20
2022-10-14T02:20:35.904Z,25.40
2022-10-14T02:23:45.118Z,23.10
2022-10-14T02:26:33.008Z,18.50
2022-10-14T02:29:22.755Z,19.70
2022-10-14T02:32:13.916Z,21.00
2022-10-14T02:35:02.171Z,18.10
2022-10-14T02:37:50.809Z,19.70
2022-10-14T02:40:47.291Z,22.10
2022-10-14T02:43:34.904Z,26.50
2022-10-14T02:46:30.945Z,18.00
2022-10-14T02:52:05.238Z,18.30
2022-10-14T02:54:57.123Z,25.40
2022-10-14T02:57:43.921Z,19.50
2022-10-14T03:00:35.989Z,20.20
2022-10-14T03:03:23.141Z,19.50
2022-10-14T03:06:10.174Z,19.40
2022-10-14T03:08:58.076Z,21.10
2022-10-14T03:11:45.045Z,15.80
2022-10-14T03:14:41.802Z,19.40
2022-10-14T03:17:34.383Z,19.50
2022-10-14T03:20:28.689Z,19.70
2022-10-14T03:23:21.552Z,16.90
2022-10-14T03:27:35.536Z,17.10
2022-10-14T03:30:32.356Z,24.40
2022-10-14T03:33:29.835Z,17.80
2022-10-14T03:36:37.576Z,21.30
2022-10-14T03:39:29.809Z,17.40
2022-10-14T03:42:29.813Z,18.60
2022-10-14T03:45:21.420Z,21.00
2022-10-14T03:48:10.402Z,18.80
2022-10-14T03:51:03.754Z,20.50
2022-10-14T03:53:55.694Z,16.60
2022-10-14T03:56:51.296Z,16.20
2022-10-14T03:59:44.731Z,17.10
2022-10-14T04:02:38.929Z,16.90
2022-10-14T04:05:33.991Z,11.10
2022-10-14T04:08:29.728Z,18.20
2022-10-14T04:11:24.232Z,15.30
2022-10-14T04:14:19.504Z,12.40
2022-10-14T04:19:48.908Z,17.60
2022-10-14T04:22:41.298Z,16.80
2022-10-14T04:25:34.142Z,22.70
2022-10-14T04:28:28.078Z,16.30
2022-10-14T04:31:25.048Z,14.90
2022-10-14T04:36:56.962Z,15.00
2022-10-14T04:40:27.113Z,14.40
2022-10-14T04:43:19.855Z,13.10
2022-10-14T04:46:12.180Z,16.60
2022-10-14T04:49:05.787Z,16.40
2022-10-14T04:52:01.961Z,16.70
2022-10-14T04:55:17.749Z,16.90
2022-10-14T04:58:09.581Z,15.50
2022-10-14T05:01:04.893Z,16.30
2022-10-14T05:04:00.727Z,15.50
2022-10-14T05:06:54.938Z,14.40
2022-10-14T05:12:24.444Z,19.50
2022-10-14T05:15:20.549Z,17.40
2022-10-14T05:18:22.278Z,15.10
2022-10-14T05:21:36.875Z,17.60
2022-10-14T05:24:38.683Z,24.30
2022-10-14T05:29:07.786Z,20.10
2022-10-14T05:31:59.552Z,18.20
2022-10-14T05:35:07.277Z,18.30
2022-10-14T05:38:04.358Z,16.50
2022-10-14T05:40:58.407Z,16.00
2022-10-14T05:43:50.182Z,17.10
2022-10-14T05:46:37.912Z,17.90
2022-10-14T05:49:33.145Z,16.70
2022-10-14T05:52:26.390Z,15.70
2022-10-14T05:55:18.811Z,14.80
2022-10-14T05:58:13.181Z,17.60
2022-10-14T06:01:02.863Z,17.10
2022-10-14T06:03:54.838Z,16.60
2022-10-14T06:06:47.164Z,17.50
2022-10-14T06:09:39.791Z,14.90
2022-10-14T06:12:32.229Z,16.80
2022-10-14T06:15:24.170Z,15.30
2022-10-14T06:19:51.635Z,14.50
2022-10-14T06:22:43.282Z,16.30
2022-10-14T06:25:36.724Z,15.80
2022-10-14T06:28:28.646Z,15.70
2022-10-14T06:31:21.035Z,13.90
2022-10-14T06:41:59.085Z,15.60
2022-10-14T06:44:51.068Z,19.10
2022-10-14T06:47:43.765Z,16.00
2022-10-14T06:53:22.810Z,18.60
2022-10-14T06:56:12.155Z,18.30
2022-10-14T06:58:59.249Z,19.40
2022-10-14T07:01:51.810Z,22.00
2022-10-14T07:07:35.496Z,16.20
2022-10-14T07:10:27.211Z,18.00
2022-10-14T07:13:18.856Z,18.70
2022-10-14T07:16:10.718Z,22.20
2022-10-14T07:20:27.621Z,24.10
2022-10-14T07:23:14.277Z,22.40
2022-10-14T07:26:06.475Z,27.20
2022-10-14T07:28:58.324Z,20.60
2022-10-14T07:31:51.355Z,27.00
2022-10-14T07:34:38.228Z,21.30
2022-10-14T07:37:30.344Z,26.90
2022-10-14T07:40:23.036Z,20.40
2022-10-14T07:43:09.784Z,22.40
2022-10-14T07:47:49.204Z,31.70
2022-10-14T07:50:35.949Z,36.00
2022-10-14T07:53:23.433Z,45.50
2022-10-14T07:56:17.103Z,27.50
2022-10-14T07:59:09.772Z,26.50
2022-10-14T08:01:56.835Z,32.70
2022-10-14T08:04:53.475Z,30.30
2022-10-14T08:07:40.249Z,31.10
2022-10-14T08:10:26.919Z,33.30
2022-10-14T08:13:18.615Z,36.50
2022-10-14T08:16:23.391Z,40.50
2022-10-14T08:19:15.105Z,35.60
2022-10-14T08:22:15.732Z,30.10
2022-10-14T08:25:08.210Z,29.30
2022-10-14T08:28:00.461Z,30.60
2022-10-14T08:30:53.435Z,29.70
2022-10-14T08:33:45.648Z,28.80
2022-10-14T08:37:58.140Z,29.10
2022-10-14T08:41:06.699Z,27.50
2022-10-14T08:44:38.644Z,30.50
2022-10-14T08:47:37.718Z,29.80
2022-10-14T08:50:39.045Z,29.50
2022-10-14T08:54:58.044Z,29.80
2022-10-14T08:57:56.701Z,27.30
2022-10-14T09:00:49.799Z,27.90
2022-10-14T09:03:42.204Z,26.90
2022-10-14T09:06:35.530Z,30.70
2022-10-14T09:09:40.172Z,27.20
2022-10-14T09:12:35.858Z,26.90
2022-10-14T09:15:32.579Z,28.10
2022-10-14T09:18:24.302Z,25.80
2022-10-14T09:24:00.780Z,27.50
2022-10-14T09:26:54.613Z,27.50
2022-10-14T09:29:48.048Z,26.30
2022-10-14T09:32:39.769Z,25.90
2022-10-14T09:35:41.547Z,26.90
2022-10-14T09:38:33.153Z,25.80
2022-10-14T09:41:31.040Z,28.60
2022-10-14T09:44:25.804Z,24.80
2022-10-14T09:47:19.456Z,27.00
2022-10-14T09:50:18.850Z,26.10
2022-10-14T09:53:19.156Z,23.10
2022-10-14T09:56:11.729Z,22.20
2022-10-14T09:59:05.263Z,24.40
2022-10-14T10:02:00.661Z,23.20
2022-10-14T10:04:48.393Z,21.40
2022-10-14T10:07:39.889Z,22.50
2022-10-14T10:10:32.767Z,20.00
2022-10-14T10:13:39.482Z,20.60
2022-10-14T10:16:35.080Z,21.60
2022-10-14T10:19:32.230Z,22.00
2022-10-14T10:22:24.184Z,20.40
2022-10-14T10:25:18.415Z,21.00
2022-10-14T10:28:16.777Z,19.00
2022-10-14T10:31:17.767Z,22.30
2022-10-14T10:34:24.480Z,20.40
2022-10-14T10:37:25.548Z,19.40
2022-10-14T10:40:24.807Z,17.40
2022-10-14T10:43:26.127Z,19.60
2022-10-14T10:46:17.668Z,18.40
2022-10-14T10:49:10.209Z,19.20
2022-10-14T10:52:08.867Z,17.90
2022-10-14T10:55:00.482Z,19.90
2022-10-14T10:57:58.381Z,17.60
2022-10-14T11:00:53.291Z,16.80
2022-10-14T11:03:57.458Z,16.90
2022-10-14T11:07:17.864Z,16.90
2022-10-14T11:10:41.896Z,17.30
2022-10-14T11:13:33.859Z,14.20
2022-10-14T11:16:34.762Z,17.90
2022-10-14T11:19:46.850Z,17.70
2022-10-14T11:24:39.724Z,15.90
2022-10-14T11:27:40.411Z,15.20
2022-10-14T11:30:55.433Z,15.90
2022-10-14T11:34:06.274Z,14.40
2022-10-14T11:37:07.182Z,14.40
2022-10-14T11:39:57.620Z,12.70
2022-10-14T11:43:01.877Z,13.80
2022-10-14T11:46:02.507Z,13.70
2022-10-14T11:48:56.687Z,13.40
2022-10-14T11:51:56.084Z,12.80
2022-10-14T11:54:48.554Z,14.30
2022-10-14T11:57:47.425Z,12.60
2022-10-14T12:00:55.017Z,13.70
2022-10-14T12:04:03.035Z,17.60
2022-10-14T12:06:58.858Z,14.30
2022-10-14T12:09:59.968Z,13.70
2022-10-14T12:12:54.561Z,12.00
2022-10-14T12:15:49.027Z,15.10
2022-10-14T12:18:37.697Z,12.20
2022-10-14T12:21:35.466Z,12.10
2022-10-14T12:24:31.264Z,11.50
2022-10-14T12:27:21.496Z,13.30
2022-10-14T12:30:32.521Z,12.20
2022-10-14T12:33:22.841Z,12.20
2022-10-14T12:36:30.929Z,11.20
2022-10-14T12:39:18.099Z,10.90
2022-10-14T12:42:13.499Z,12.20
2022-10-14T12:45:03.516Z,12.40
2022-10-14T12:48:27.963Z,12.30
2022-10-14T12:51:21.445Z,11.70
2022-10-14T12:54:15.845Z,11.70
2022-10-14T12:57:31.295Z,12.60
2022-10-14T13:03:27.449Z,11.60
2022-10-14T13:06:42.494Z,13.20
2022-10-14T13:09:32.936Z,13.20
2022-10-14T13:12:19.914Z,11.70
2022-10-14T13:15:36.824Z,14.00
2022-10-14T13:18:39.319Z,11.70
2022-10-14T13:21:26.161Z,12.60
2022-10-14T13:24:22.269Z,12.60
2022-10-14T13:27:28.167Z,13.90
2022-10-14T13:30:34.175Z,13.00
2022-10-14T13:33:46.469Z,11.00
2022-10-14T13:39:37.766Z,14.80
2022-10-14T13:42:30.575Z,14.70
2022-10-14T13:45:18.800Z,14.10
2022-10-14T13:48:16.976Z,14.30
2022-10-14T13:51:31.762Z,13.80
2022-10-14T13:54:32.624Z,15.80
2022-10-14T13:57:47.846Z,14.30
2022-10-14T14:00:40.694Z,15.40
2022-10-14T14:03:42.054Z,14.40
2022-10-14T14:06:45.248Z,14.00
2022-10-14T14:09:39.864Z,12.20
2022-10-14T14:12:29.234Z,14.60
2022-10-14T14:15:27.786Z,13.40
2022-10-14T14:18:34.063Z,13.50
2022-10-14T14:21:30.574Z,13.50
2022-10-14T14:24:29.549Z,13.70
2022-10-14T14:27:20.214Z,14.10
2022-10-14T14:30:20.761Z,13.50
2022-10-14T14:33:13.219Z,15.30
2022-10-14T14:39:01.153Z,14.70
2022-10-14T14:41:53.317Z,31.90
2022-10-14T14:44:40.467Z,17.80
2022-10-14T14:47:29.211Z,19.30
2022-10-14T14:50:35.671Z,14.60
2022-10-14T14:53:29.743Z,11.80
2022-10-14T14:56:22.718Z,12.80
2022-10-14T14:59:25.851Z,12.80
2022-10-14T15:02:16.549Z,11.80
2022-10-14T15:05:10.792Z,31.10
2022-10-14T15:08:03.087Z,20.00
2022-10-14T15:10:51.148Z,17.70
2022-10-14T15:13:38.917Z,21.40
2022-10-14T15:16:44.237Z,17.70
2022-10-14T15:19:37.428Z,16.10
2022-10-14T15:22:40.381Z,14.20
2022-10-14T15:25:31.288Z,16.80
2022-10-14T15:28:33.062Z,13.20
2022-10-14T15:31:21.395Z,16.40
2022-10-14T15:34:21.472Z,15.10
2022-10-14T15:37:13.348Z,14.80
2022-10-14T15:40:05.471Z,13.90
2022-10-14T15:42:53.001Z,13.50
2022-10-14T15:45:44.824Z,15.50
2022-10-14T15:48:31.981Z,14.50
2022-10-14T15:51:21.058Z,15.60
2022-10-14T15:54:12.664Z,18.90
2022-10-14T15:56:59.613Z,15.40
2022-10-14T15:59:46.435Z,24.60
2022-10-14T16:02:35.301Z,26.00
2022-10-14T16:05:22.572Z,19.30
2022-10-14T16:08:16.442Z,21.30
2022-10-14T16:11:04.512Z,25.40
2022-10-14T16:13:55.207Z,21.10
2022-10-14T16:16:46.025Z,23.10
2022-10-14T16:19:33.384Z,17.80
2022-10-14T16:22:20.070Z,19.20
2022-10-14T16:25:07.720Z,19.40
2022-10-14T16:27:54.500Z,19.70
2022-10-14T16:30:48.800Z,19.40
2022-10-14T16:33:46.378Z,18.00
2022-10-14T16:36:34.021Z,18.00
2022-10-14T16:39:22.941Z,16.50
2022-10-14T16:42:13.157Z,17.80
2022-10-14T16:45:00.557Z,16.90
2022-10-14T16:47:47.314Z,15.00
2022-10-14T16:50:34.089Z,14.80
2022-10-14T16:53:40.652Z,16.20
2022-10-14T16:56:56.257Z,17.60
2022-10-14T16:59:43.365Z,17.00
2022-10-14T17:02:32.113Z,16.00
2022-10-14T17:05:20.996Z,16.90
2022-10-14T17:08:08.535Z,17.90
2022-10-14T17:10:58.142Z,15.40
2022-10-14T17:13:45.422Z,17.70
2022-10-14T17:16:32.364Z,17.40
2022-10-14T17:19:20.423Z,18.80
2022-10-14T17:22:07.553Z,19.40
2022-10-14T17:24:55.101Z,20.10
2022-10-14T17:27:42.492Z,19.80
2022-10-14T17:30:30.247Z,19.50
2022-10-14T17:33:17.933Z,18.80
2022-10-14T17:36:07.308Z,19.50
2022-10-14T17:38:55.762Z,19.60
2022-10-14T17:41:42.424Z,20.30
2022-10-14T17:44:31.103Z,20.50
2022-10-14T17:47:17.948Z,21.70
2022-10-14T17:50:07.119Z,21.70
2022-10-14T17:52:54.524Z,21.50
2022-10-14T17:55:41.354Z,21.40
2022-10-14T17:58:28.768Z,20.00
2022-10-14T18:01:16.272Z,21.00
2022-10-14T18:04:03.676Z,21.40
2022-10-14T18:06:50.239Z,22.80
2022-10-14T18:09:37.063Z,22.70
2022-10-14T18:12:24.434Z,24.30
2022-10-14T18:15:11.506Z,25.20
2022-10-14T18:17:58.625Z,24.50
2022-10-14T18:20:45.574Z,24.00
2022-10-14T18:23:33.475Z,22.30
2022-10-14T18:26:21.907Z,24.60
2022-10-14T18:29:09.313Z,29.10
2022-10-14T18:31:56.885Z,31.30
2022-10-14T18:34:44.654Z,28.00
2022-10-14T18:37:35.313Z,27.40
2022-10-14T18:40:22.300Z,24.40
2022-10-14T18:43:09.571Z,27.90
2022-10-14T18:46:23.751Z,27.90
2022-10-14T18:49:15.851Z,29.70
2022-10-14T18:54:54.668Z,27.70
2022-10-14T18:57:41.513Z,28.70
2022-10-14T19:00:28.408Z,29.60
2022-10-14T19:03:15.711Z,27.30
2022-10-14T19:06:02.643Z,25.70
2022-10-14T19:08:50.085Z,26.80
2022-10-14T19:11:37.140Z,28.10
2022-10-14T19:14:31.893Z,28.20
2022-10-14T19:17:18.937Z,25.50
2022-10-14T19:20:08.388Z,24.70
2022-10-14T19:22:56.710Z,25.10
2022-10-14T19:25:43.808Z,25.20
2022-10-14T19:28:30.835Z,25.60
2022-10-14T19:31:20.953Z,26.50
2022-10-14T19:34:16.627Z,27.80
2022-10-14T19:37:03.872Z,16.70
2022-10-14T19:39:51.285Z,27.70
2022-10-14T19:42:43.333Z,25.50
2022-10-14T19:45:35.107Z,19.50
2022-10-14T19:48:27.148Z,26.80
2022-10-14T19:51:23.139Z,27.10
2022-10-14T19:54:12.070Z,31.00
2022-10-14T19:56:58.857Z,23.10
2022-10-14T19:59:45.434Z,36.60
2022-10-14T20:02:32.377Z,34.50
2022-10-14T20:05:19.475Z,26.10
2022-10-14T20:08:06.531Z,32.70
2022-10-14T20:10:53.724Z,38.40
2022-10-14T20:13:40.848Z,44.60
2022-10-14T20:16:27.850Z,29.30
2022-10-14T20:19:32.271Z,39.10
2022-10-14T20:22:19.457Z,25.60
2022-10-14T20:25:06.802Z,46.90
2022-10-14T20:27:58.759Z,41.60
2022-10-14T20:30:50.990Z,31.40
2022-10-14T20:33:43.503Z,25.00
2022-10-14T20:36:35.042Z,37.30
2022-10-14T20:39:26.711Z,38.40
2022-10-14T20:43:50.914Z,36.80
2022-10-14T20:46:43.121Z,22.30
2022-10-14T20:49:30.849Z,33.60
2022-10-14T20:52:22.625Z,35.10
2022-10-14T20:55:15.359Z,21.60
2022-10-14T20:58:02.314Z,19.70
2022-10-14T21:00:49.111Z,18.90
2022-10-14T21:03:36.727Z,22.50
2022-10-14T21:06:29.273Z,21.80
2022-10-14T21:11:13.741Z,19.50
2022-10-14T21:14:06.941Z,22.30
2022-10-14T21:16:54.354Z,27.80
2022-10-14T21:19:48.397Z,34.40
2022-10-14T21:22:37.038Z,20.40
2022-10-14T21:25:28.867Z,24.20
2022-10-14T21:28:20.633Z,37.30
2022-10-14T21:31:17.505Z,40.80
2022-10-14T21:34:12.447Z,24.00
2022-10-14T21:38:29.747Z,23.30
2022-10-14T21:41:21.482Z,24.10
2022-10-14T21:44:19.817Z,26.70
2022-10-14T21:47:11.759Z,26.00
2022-10-14T21:49:58.756Z,42.60
2022-10-14T21:52:50.547Z,29.30
2022-10-14T21:55:42.484Z,28.30
2022-10-14T21:58:35.043Z,42.40
2022-10-14T22:01:29.598Z,47.60
2022-10-14T22:04:21.682Z,43.30
2022-10-14T22:07:10.704Z,28.20
2022-10-14T22:09:57.531Z,26.20
2022-10-14T22:12:45.558Z,24.40
2022-10-14T22:15:43.858Z,25.40
2022-10-14T22:18:50.579Z,25.40
2022-10-14T22:21:38.884Z,25.10
2022-10-14T22:24:31.005Z,26.00
2022-10-14T22:27:23.115Z,36.70
2022-10-14T22:30:10.625Z,24.10
2022-10-14T22:32:57.264Z,32.70
2022-10-14T22:35:48.832Z,22.50
2022-10-14T22:38:35.850Z,30.40
2022-10-14T22:41:24.292Z,28.40
2022-10-14T22:44:16.066Z,20.60
2022-10-14T22:47:08.102Z,31.10
2022-10-14T22:52:47.241Z,25.90
2022-10-14T22:55:35.168Z,27.90
2022-10-14T22:58:27.464Z,20.40
2022-10-14T23:01:21.353Z,22.20
2022-10-14T23:04:13.152Z,18.80
2022-10-14T23:07:06.928Z,29.70
2022-10-14T23:09:54.063Z,22.20
2022-10-14T23:12:45.522Z,23.70
2022-10-14T23:15:37.585Z,32.30
2022-10-14T23:18:26.330Z,31.70
2022-10-14T23:21:24.298Z,31.50
2022-10-14T23:24:16.286Z,18.10
2022-10-14T23:27:08.989Z,29.50
2022-10-14T23:30:00.596Z,30.80
2022-10-14T23:32:52.317Z,16.80
2022-10-14T23:35:44.026Z,29.10
2022-10-14T23:38:36.910Z,29.10
2022-10-14T23:41:29.589Z,29.00
2022-10-14T23:44:21.745Z,30.00
2022-10-14T23:48:47.983Z,18.50
2022-10-14T23:51:49.951Z,19.30
2022-10-14T23:54:45.934Z,27.80
2022-10-14T23:57:38.188Z,30.60
